KCCA/CCA METAR and TAF weather

Enter ICAO airport designator
Station Type Date Time Source
KCCA METAR 2020/04/06 06:55 UTC NOAA

KCCA 060655Z AUTO 00000KT 1 1/2SM BR SCT001 SCT036 10/10 A3009 RMK AO2


Station Type Date Time Source
KCCA Decoded METAR 2020/04/06 06:55 UTC NOAA

Station name not available
Apr 06, 2020 - 02:55 AM EDT / 2020.04.06 0655 UTC
Wind: Calm:0
Visibility: 1 1/2 mile(s):0
Sky conditions: partly cloudy
Weather: mist
Temperature: 50 F (10 C)
Dew Point: 50 F (10 C)
Relative Humidity: 100%
Pressure (altimeter): 30.09 in. Hg (1018 hPa)
ob: KCCA 060655Z AUTO 00000KT 1 1/2SM BR SCT001 SCT036 10/10 A3009 RMK AO2
cycle: 7

Station Type Date Time Source
KCCA TAF UTC NOAA

Error!

Example: see airport list